sensor_id;sensor_type;location;lat;lon;timestamp;P1;durP1;ratioP1;P2;durP2;ratioP2
66487;SDS011;53304;54.550;18.526;2023-02-01T00:00:24;3.45;;;1.20;;
66487;SDS011;53304;54.550;18.526;2023-02-01T00:02:51;7.65;;;1.30;;
66487;SDS011;53304;54.550;18.526;2023-02-01T00:05:17;4.10;;;1.27;;
66487;SDS011;53304;54.550;18.526;2023-02-01T00:07:42;4.05;;;1.13;;
66487;SDS011;53304;54.550;18.526;2023-02-01T00:10:11;3.05;;;1.20;;
66487;SDS011;53304;54.550;18.526;2023-02-01T00:12:39;3.05;;;1.08;;
66487;SDS011;53304;54.550;18.526;2023-02-01T00:15:07;4.07;;;1.20;;
66487;SDS011;53304;54.550;18.526;2023-02-01T00:17:35;3.17;;;1.20;;
66487;SDS011;53304;54.550;18.526;2023-02-01T00:20:03;3.33;;;1.10;;
66487;SDS011;53304;54.550;18.526;2023-02-01T00:22:35;2.55;;;1.00;;
66487;SDS011;53304;54.550;18.526;2023-02-01T00:25:00;4.38;;;1.30;;
66487;SDS011;53304;54.550;18.526;2023-02-01T00:27:26;4.68;;;1.23;;
66487;SDS011;53304;54.550;18.526;2023-02-01T00:29:54;6.13;;;1.20;;
66487;SDS011;53304;54.550;18.526;2023-02-01T00:32:20;3.53;;;1.10;;
66487;SDS011;53304;54.550;18.526;2023-02-01T00:34:45;2.28;;;1.00;;
66487;SDS011;53304;54.550;18.526;2023-02-01T00:37:10;3.17;;;1.00;;
66487;SDS011;53304;54.550;18.526;2023-02-01T00:39:36;4.53;;;1.27;;
66487;SDS011;53304;54.550;18.526;2023-02-01T00:42:01;4.78;;;1.23;;
66487;SDS011;53304;54.550;18.526;2023-02-01T00:44:27;1.48;;;0.80;;
66487;SDS011;53304;54.550;18.526;2023-02-01T00:46:52;3.42;;;1.10;;
66487;SDS011;53304;54.550;18.526;2023-02-01T00:49:20;3.42;;;1.00;;
66487;SDS011;53304;54.550;18.526;2023-02-01T00:51:45;2.85;;;1.10;;
66487;SDS011;53304;54.550;18.526;2023-02-01T00:54:13;2.45;;;0.90;;
66487;SDS011;53304;54.550;18.526;2023-02-01T00:56:41;2.45;;;1.00;;
66487;SDS011;53304;54.550;18.526;2023-02-01T00:59:10;3.85;;;1.20;;
66487;SDS011;53304;54.550;18.526;2023-02-01T01:01:38;3.50;;;1.23;;
66487;SDS011;53304;54.550;18.526;2023-02-01T01:04:03;4.60;;;1.10;;
66487;SDS011;53304;54.550;18.526;2023-02-01T01:06:32;3.88;;;1.10;;
66487;SDS011;53304;54.550;18.526;2023-02-01T01:09:03;3.58;;;1.17;;
66487;SDS011;53304;54.550;18.526;2023-02-01T01:11:33;4.00;;;1.10;;
66487;SDS011;53304;54.550;18.526;2023-02-01T01:14:01;4.82;;;1.05;;
66487;SDS011;53304;54.550;18.526;2023-02-01T01:16:27;3.85;;;1.15;;
66487;SDS011;53304;54.550;18.526;2023-02-01T01:18:54;3.88;;;1.10;;
66487;SDS011;53304;54.550;18.526;2023-02-01T01:21:20;3.47;;;1.00;;
66487;SDS011;53304;54.550;18.526;2023-02-01T01:23:48;4.35;;;1.08;;
66487;SDS011;53304;54.550;18.526;2023-02-01T01:26:15;2.30;;;0.93;;
66487;SDS011;53304;54.550;18.526;2023-02-01T01:28:44;4.03;;;1.00;;
66487;SDS011;53304;54.550;18.526;2023-02-01T01:31:12;4.57;;;1.10;;
66487;SDS011;53304;54.550;18.526;2023-02-01T01:33:42;4.38;;;1.33;;
66487;SDS011;53304;54.550;18.526;2023-02-01T01:36:09;3.80;;;0.88;;
66487;SDS011;53304;54.550;18.526;2023-02-01T01:38:36;3.38;;;1.00;;
66487;SDS011;53304;54.550;18.526;2023-02-01T01:41:04;3.63;;;0.80;;
66487;SDS011;53304;54.550;18.526;2023-02-01T01:46:22;3.28;;;1.02;;
66487;SDS011;53304;54.550;18.526;2023-02-01T01:51:49;5.10;;;1.20;;
66487;SDS011;53304;54.550;18.526;2023-02-01T01:56:50;3.75;;;1.00;;
66487;SDS011;53304;54.550;18.526;2023-02-01T01:59:23;2.53;;;1.05;;
66487;SDS011;53304;54.550;18.526;2023-02-01T02:01:49;2.85;;;1.10;;
66487;SDS011;53304;54.550;18.526;2023-02-01T02:04:15;3.72;;;0.90;;
66487;SDS011;53304;54.550;18.526;2023-02-01T02:06:52;2.58;;;0.98;;
66487;SDS011;53304;54.550;18.526;2023-02-01T02:09:22;2.80;;;0.82;;
66487;SDS011;53304;54.550;18.526;2023-02-01T02:11:50;2.95;;;1.00;;
66487;SDS011;53304;54.550;18.526;2023-02-01T02:14:16;2.45;;;0.90;;
66487;SDS011;53304;54.550;18.526;2023-02-01T02:16:59;5.15;;;1.27;;
66487;SDS011;53304;54.550;18.526;2023-02-01T02:22:48;3.25;;;0.90;;
66487;SDS011;53304;54.550;18.526;2023-02-01T02:41:26;1.85;;;0.90;;
66487;SDS011;53304;54.550;18.526;2023-02-01T02:44:21;3.70;;;1.00;;
66487;SDS011;53304;54.550;18.526;2023-02-01T02:47:20;3.60;;;0.98;;
66487;SDS011;53304;54.550;18.526;2023-02-01T02:53:21;3.28;;;0.85;;
66487;SDS011;53304;54.550;18.526;2023-02-01T02:56:12;2.55;;;0.95;;
66487;SDS011;53304;54.550;18.526;2023-02-01T02:58:59;3.53;;;1.27;;
66487;SDS011;53304;54.550;18.526;2023-02-01T03:01:43;3.75;;;1.00;;
66487;SDS011;53304;54.550;18.526;2023-02-01T03:04:27;3.45;;;0.82;;
66487;SDS011;53304;54.550;18.526;2023-02-01T03:07:09;4.90;;;0.90;;
66487;SDS011;53304;54.550;18.526;2023-02-01T03:09:37;3.07;;;1.00;;
66487;SDS011;53304;54.550;18.526;2023-02-01T03:12:07;2.90;;;1.13;;
66487;SDS011;53304;54.550;18.526;2023-02-01T03:14:54;4.68;;;1.10;;
66487;SDS011;53304;54.550;18.526;2023-02-01T03:17:25;2.75;;;1.05;;
66487;SDS011;53304;54.550;18.526;2023-02-01T03:19:55;3.35;;;1.02;;
66487;SDS011;53304;54.550;18.526;2023-02-01T03:22:27;2.03;;;1.02;;
66487;SDS011;53304;54.550;18.526;2023-02-01T03:24:59;2.08;;;1.05;;
66487;SDS011;53304;54.550;18.526;2023-02-01T03:27:32;4.30;;;0.98;;
66487;SDS011;53304;54.550;18.526;2023-02-01T03:30:21;6.57;;;1.10;;
66487;SDS011;53304;54.550;18.526;2023-02-01T03:32:46;2.75;;;0.98;;
66487;SDS011;53304;54.550;18.526;2023-02-01T03:40:45;4.25;;;1.00;;
66487;SDS011;53304;54.550;18.526;2023-02-01T03:43:26;4.22;;;0.93;;
66487;SDS011;53304;54.550;18.526;2023-02-01T03:45:56;3.35;;;1.00;;
66487;SDS011;53304;54.550;18.526;2023-02-01T03:48:23;3.30;;;1.00;;
66487;SDS011;53304;54.550;18.526;2023-02-01T03:50:55;2.80;;;0.93;;
66487;SDS011;53304;54.550;18.526;2023-02-01T03:53:25;5.20;;;1.10;;
66487;SDS011;53304;54.550;18.526;2023-02-01T03:55:57;4.30;;;1.10;;
66487;SDS011;53304;54.550;18.526;2023-02-01T03:58:25;2.83;;;1.00;;
66487;SDS011;53304;54.550;18.526;2023-02-01T04:00:53;3.33;;;1.13;;
66487;SDS011;53304;54.550;18.526;2023-02-01T04:03:20;4.88;;;0.98;;
66487;SDS011;53304;54.550;18.526;2023-02-01T04:05:50;4.70;;;1.20;;
66487;SDS011;53304;54.550;18.526;2023-02-01T04:08:21;4.90;;;1.13;;
66487;SDS011;53304;54.550;18.526;2023-02-01T04:10:47;3.05;;;0.93;;
66487;SDS011;53304;54.550;18.526;2023-02-01T04:13:15;4.80;;;0.90;;
66487;SDS011;53304;54.550;18.526;2023-02-01T04:15:43;3.22;;;0.93;;
66487;SDS011;53304;54.550;18.526;2023-02-01T04:18:08;2.63;;;0.80;;
66487;SDS011;53304;54.550;18.526;2023-02-01T04:20:38;2.17;;;0.82;;
66487;SDS011;53304;54.550;18.526;2023-02-01T04:23:04;3.85;;;1.13;;
66487;SDS011;53304;54.550;18.526;2023-02-01T04:25:29;2.83;;;0.90;;
66487;SDS011;53304;54.550;18.526;2023-02-01T04:27:59;4.32;;;0.93;;
66487;SDS011;53304;54.550;18.526;2023-02-01T04:30:27;3.45;;;0.82;;
66487;SDS011;53304;54.550;18.526;2023-02-01T04:32:54;2.28;;;0.80;;
66487;SDS011;53304;54.550;18.526;2023-02-01T04:35:24;3.58;;;1.00;;
66487;SDS011;53304;54.550;18.526;2023-02-01T04:37:51;3.05;;;0.93;;
66487;SDS011;53304;54.550;18.526;2023-02-01T04:40:24;3.85;;;1.08;;
66487;SDS011;53304;54.550;18.526;2023-02-01T04:42:52;3.65;;;0.90;;
66487;SDS011;53304;54.550;18.526;2023-02-01T04:45:19;5.03;;;1.27;;
66487;SDS011;53304;54.550;18.526;2023-02-01T04:47:45;3.97;;;1.00;;
66487;SDS011;53304;54.550;18.526;2023-02-01T04:50:10;2.95;;;1.08;;
66487;SDS011;53304;54.550;18.526;2023-02-01T04:52:36;2.78;;;0.88;;
66487;SDS011;53304;54.550;18.526;2023-02-01T04:55:06;3.67;;;0.90;;
66487;SDS011;53304;54.550;18.526;2023-02-01T04:57:32;3.25;;;1.10;;
66487;SDS011;53304;54.550;18.526;2023-02-01T04:59:58;4.10;;;1.15;;
66487;SDS011;53304;54.550;18.526;2023-02-01T05:02:23;3.17;;;1.02;;
66487;SDS011;53304;54.550;18.526;2023-02-01T05:04:48;4.93;;;1.00;;
66487;SDS011;53304;54.550;18.526;2023-02-01T05:07:15;4.22;;;1.48;;
66487;SDS011;53304;54.550;18.526;2023-02-01T05:09:41;4.00;;;0.98;;
66487;SDS011;53304;54.550;18.526;2023-02-01T05:12:09;4.22;;;1.13;;
66487;SDS011;53304;54.550;18.526;2023-02-01T05:14:53;3.05;;;1.23;;
66487;SDS011;53304;54.550;18.526;2023-02-01T05:17:19;6.38;;;1.25;;
66487;SDS011;53304;54.550;18.526;2023-02-01T05:19:46;2.88;;;0.82;;
66487;SDS011;53304;54.550;18.526;2023-02-01T05:22:17;2.72;;;0.80;;
66487;SDS011;53304;54.550;18.526;2023-02-01T05:24:44;4.50;;;1.30;;
66487;SDS011;53304;54.550;18.526;2023-02-01T05:27:10;2.85;;;1.00;;
66487;SDS011;53304;54.550;18.526;2023-02-01T05:29:38;4.65;;;1.20;;
66487;SDS011;53304;54.550;18.526;2023-02-01T05:32:06;2.22;;;0.95;;
66487;SDS011;53304;54.550;18.526;2023-02-01T05:34:33;4.55;;;1.08;;
66487;SDS011;53304;54.550;18.526;2023-02-01T05:36:59;2.95;;;0.95;;
66487;SDS011;53304;54.550;18.526;2023-02-01T05:39:24;3.90;;;1.00;;
66487;SDS011;53304;54.550;18.526;2023-02-01T05:41:52;2.30;;;0.73;;
66487;SDS011;53304;54.550;18.526;2023-02-01T05:44:20;3.83;;;0.90;;
66487;SDS011;53304;54.550;18.526;2023-02-01T05:46:45;3.75;;;0.98;;
66487;SDS011;53304;54.550;18.526;2023-02-01T05:49:10;6.28;;;1.27;;
66487;SDS011;53304;54.550;18.526;2023-02-01T05:51:41;2.38;;;0.90;;
66487;SDS011;53304;54.550;18.526;2023-02-01T05:54:07;3.13;;;1.02;;
66487;SDS011;53304;54.550;18.526;2023-02-01T05:56:35;3.58;;;1.25;;
66487;SDS011;53304;54.550;18.526;2023-02-01T05:59:01;3.78;;;1.20;;
66487;SDS011;53304;54.550;18.526;2023-02-01T06:01:26;3.47;;;1.00;;
66487;SDS011;53304;54.550;18.526;2023-02-01T06:03:52;3.38;;;1.20;;
66487;SDS011;53304;54.550;18.526;2023-02-01T06:06:17;7.28;;;1.10;;
66487;SDS011;53304;54.550;18.526;2023-02-01T06:08:43;7.55;;;1.42;;
66487;SDS011;53304;54.550;18.526;2023-02-01T06:11:09;3.38;;;1.13;;
66487;SDS011;53304;54.550;18.526;2023-02-01T06:13:38;3.55;;;0.90;;
66487;SDS011;53304;54.550;18.526;2023-02-01T06:16:04;5.53;;;1.10;;
66487;SDS011;53304;54.550;18.526;2023-02-01T06:18:33;4.97;;;1.02;;
66487;SDS011;53304;54.550;18.526;2023-02-01T06:20:59;7.82;;;1.45;;
66487;SDS011;53304;54.550;18.526;2023-02-01T06:23:28;6.28;;;1.13;;
66487;SDS011;53304;54.550;18.526;2023-02-01T06:26:06;7.90;;;1.40;;
66487;SDS011;53304;54.550;18.526;2023-02-01T06:28:35;5.90;;;1.20;;
66487;SDS011;53304;54.550;18.526;2023-02-01T06:31:04;8.32;;;1.30;;
66487;SDS011;53304;54.550;18.526;2023-02-01T06:33:31;9.45;;;1.50;;
66487;SDS011;53304;54.550;18.526;2023-02-01T06:36:01;11.05;;;1.38;;
66487;SDS011;53304;54.550;18.526;2023-02-01T06:38:32;6.88;;;1.17;;
66487;SDS011;53304;54.550;18.526;2023-02-01T06:40:59;4.88;;;1.13;;
66487;SDS011;53304;54.550;18.526;2023-02-01T06:43:27;8.05;;;1.30;;
66487;SDS011;53304;54.550;18.526;2023-02-01T06:46:01;7.90;;;1.15;;
66487;SDS011;53304;54.550;18.526;2023-02-01T06:48:32;6.00;;;1.73;;
66487;SDS011;53304;54.550;18.526;2023-02-01T06:50:57;4.10;;;1.05;;
66487;SDS011;53304;54.550;18.526;2023-02-01T06:53:23;5.25;;;1.45;;
66487;SDS011;53304;54.550;18.526;2023-02-01T06:55:52;6.72;;;1.48;;
66487;SDS011;53304;54.550;18.526;2023-02-01T07:00:47;10.80;;;1.20;;
66487;SDS011;53304;54.550;18.526;2023-02-01T07:03:15;4.82;;;1.20;;
66487;SDS011;53304;54.550;18.526;2023-02-01T07:05:40;7.78;;;1.40;;
66487;SDS011;53304;54.550;18.526;2023-02-01T07:08:06;4.57;;;1.23;;
66487;SDS011;53304;54.550;18.526;2023-02-01T07:10:31;9.60;;;1.35;;
66487;SDS011;53304;54.550;18.526;2023-02-01T07:13:00;6.20;;;1.48;;
66487;SDS011;53304;54.550;18.526;2023-02-01T07:15:28;5.90;;;1.70;;
66487;SDS011;53304;54.550;18.526;2023-02-01T07:17:54;3.00;;;1.13;;
66487;SDS011;53304;54.550;18.526;2023-02-01T07:20:20;5.43;;;1.30;;
66487;SDS011;53304;54.550;18.526;2023-02-01T07:22:45;7.72;;;1.30;;
66487;SDS011;53304;54.550;18.526;2023-02-01T07:25:13;8.88;;;1.50;;
66487;SDS011;53304;54.550;18.526;2023-02-01T07:27:38;9.07;;;1.80;;
66487;SDS011;53304;54.550;18.526;2023-02-01T07:30:06;7.43;;;1.90;;
66487;SDS011;53304;54.550;18.526;2023-02-01T07:32:32;6.55;;;1.30;;
66487;SDS011;53304;54.550;18.526;2023-02-01T07:35:00;6.75;;;1.40;;
66487;SDS011;53304;54.550;18.526;2023-02-01T07:37:25;9.80;;;1.60;;
66487;SDS011;53304;54.550;18.526;2023-02-01T07:39:53;5.80;;;1.45;;
66487;SDS011;53304;54.550;18.526;2023-02-01T07:42:19;5.45;;;1.83;;
66487;SDS011;53304;54.550;18.526;2023-02-01T07:44:47;6.80;;;1.70;;
66487;SDS011;53304;54.550;18.526;2023-02-01T07:47:14;7.90;;;1.58;;
66487;SDS011;53304;54.550;18.526;2023-02-01T07:49:40;4.68;;;1.20;;
66487;SDS011;53304;54.550;18.526;2023-02-01T07:52:05;4.35;;;1.20;;
66487;SDS011;53304;54.550;18.526;2023-02-01T07:54:33;3.72;;;1.27;;
66487;SDS011;53304;54.550;18.526;2023-02-01T07:56:58;4.97;;;1.30;;
66487;SDS011;53304;54.550;18.526;2023-02-01T07:59:24;4.57;;;1.27;;
66487;SDS011;53304;54.550;18.526;2023-02-01T08:01:52;5.32;;;1.45;;
66487;SDS011;53304;54.550;18.526;2023-02-01T08:04:17;8.43;;;1.90;;
66487;SDS011;53304;54.550;18.526;2023-02-01T08:06:43;5.88;;;1.90;;
66487;SDS011;53304;54.550;18.526;2023-02-01T08:09:08;6.47;;;1.30;;
66487;SDS011;53304;54.550;18.526;2023-02-01T08:11:35;5.13;;;1.42;;
66487;SDS011;53304;54.550;18.526;2023-02-01T08:14:02;5.18;;;1.70;;
66487;SDS011;53304;54.550;18.526;2023-02-01T08:16:28;6.68;;;1.90;;
66487;SDS011;53304;54.550;18.526;2023-02-01T08:18:54;4.47;;;1.48;;
66487;SDS011;53304;54.550;18.526;2023-02-01T08:21:25;5.10;;;1.27;;
66487;SDS011;53304;54.550;18.526;2023-02-01T08:23:53;14.17;;;2.80;;
66487;SDS011;53304;54.550;18.526;2023-02-01T08:26:22;11.73;;;2.70;;
66487;SDS011;53304;54.550;18.526;2023-02-01T08:28:55;13.63;;;2.42;;
66487;SDS011;53304;54.550;18.526;2023-02-01T08:31:23;14.18;;;2.88;;
66487;SDS011;53304;54.550;18.526;2023-02-01T08:33:51;15.18;;;3.00;;
66487;SDS011;53304;54.550;18.526;2023-02-01T08:36:21;11.93;;;2.08;;
66487;SDS011;53304;54.550;18.526;2023-02-01T08:38:46;14.68;;;2.63;;
66487;SDS011;53304;54.550;18.526;2023-02-01T08:41:16;14.13;;;2.78;;
66487;SDS011;53304;54.550;18.526;2023-02-01T08:43:46;8.07;;;2.20;;
66487;SDS011;53304;54.550;18.526;2023-02-01T08:46:14;13.85;;;2.40;;
66487;SDS011;53304;54.550;18.526;2023-02-01T08:48:42;8.45;;;2.22;;
66487;SDS011;53304;54.550;18.526;2023-02-01T08:51:11;6.32;;;1.70;;
66487;SDS011;53304;54.550;18.526;2023-02-01T08:53:38;10.23;;;2.17;;
66487;SDS011;53304;54.550;18.526;2023-02-01T08:56:06;10.85;;;1.60;;
66487;SDS011;53304;54.550;18.526;2023-02-01T08:58:32;6.53;;;1.75;;
66487;SDS011;53304;54.550;18.526;2023-02-01T09:01:01;5.88;;;1.73;;
66487;SDS011;53304;54.550;18.526;2023-02-01T09:03:30;13.05;;;1.88;;
66487;SDS011;53304;54.550;18.526;2023-02-01T09:05:59;7.82;;;1.85;;
66487;SDS011;53304;54.550;18.526;2023-02-01T09:08:32;7.88;;;1.77;;
66487;SDS011;53304;54.550;18.526;2023-02-01T09:11:01;9.45;;;1.92;;
66487;SDS011;53304;54.550;18.526;2023-02-01T09:13:31;8.55;;;1.75;;
66487;SDS011;53304;54.550;18.526;2023-02-01T09:15:56;5.32;;;1.70;;
66487;SDS011;53304;54.550;18.526;2023-02-01T09:18:23;8.18;;;1.77;;
66487;SDS011;53304;54.550;18.526;2023-02-01T09:20:51;7.10;;;2.13;;
66487;SDS011;53304;54.550;18.526;2023-02-01T09:23:19;8.38;;;2.20;;
66487;SDS011;53304;54.550;18.526;2023-02-01T09:25:45;6.00;;;1.80;;
66487;SDS011;53304;54.550;18.526;2023-02-01T09:28:11;6.38;;;1.70;;
66487;SDS011;53304;54.550;18.526;2023-02-01T09:30:36;5.30;;;1.60;;
66487;SDS011;53304;54.550;18.526;2023-02-01T09:33:04;6.95;;;1.80;;
66487;SDS011;53304;54.550;18.526;2023-02-01T09:35:30;7.32;;;1.83;;
66487;SDS011;53304;54.550;18.526;2023-02-01T09:37:58;7.38;;;1.92;;
66487;SDS011;53304;54.550;18.526;2023-02-01T09:40:23;6.35;;;1.80;;
66487;SDS011;53304;54.550;18.526;2023-02-01T09:48:11;7.00;;;1.85;;
66487;SDS011;53304;54.550;18.526;2023-02-01T09:50:44;7.82;;;2.00;;
66487;SDS011;53304;54.550;18.526;2023-02-01T09:53:13;5.93;;;1.88;;
66487;SDS011;53304;54.550;18.526;2023-02-01T09:55:47;5.40;;;1.52;;
66487;SDS011;53304;54.550;18.526;2023-02-01T10:01:01;5.50;;;1.70;;
66487;SDS011;53304;54.550;18.526;2023-02-01T10:03:28;8.38;;;1.80;;
66487;SDS011;53304;54.550;18.526;2023-02-01T10:06:04;8.25;;;1.90;;
66487;SDS011;53304;54.550;18.526;2023-02-01T10:08:39;5.28;;;1.70;;
66487;SDS011;53304;54.550;18.526;2023-02-01T10:19:33;10.25;;;2.00;;
66487;SDS011;53304;54.550;18.526;2023-02-01T10:22:10;6.65;;;1.67;;
66487;SDS011;53304;54.550;18.526;2023-02-01T10:24:47;5.80;;;1.70;;
66487;SDS011;53304;54.550;18.526;2023-02-01T10:27:22;6.78;;;1.85;;
66487;SDS011;53304;54.550;18.526;2023-02-01T10:29:55;5.10;;;1.58;;
66487;SDS011;53304;54.550;18.526;2023-02-01T10:32:29;6.75;;;1.77;;
66487;SDS011;53304;54.550;18.526;2023-02-01T10:35:08;4.53;;;1.70;;
66487;SDS011;53304;54.550;18.526;2023-02-01T10:37:37;8.55;;;1.90;;
66487;SDS011;53304;54.550;18.526;2023-02-01T10:40:39;4.85;;;1.60;;
66487;SDS011;53304;54.550;18.526;2023-02-01T10:42:59;5.35;;;1.70;;
66487;SDS011;53304;54.550;18.526;2023-02-01T10:45:27;6.60;;;1.50;;
66487;SDS011;53304;54.550;18.526;2023-02-01T10:47:55;8.07;;;1.75;;
66487;SDS011;53304;54.550;18.526;2023-02-01T10:53:11;5.43;;;1.60;;
66487;SDS011;53304;54.550;18.526;2023-02-01T10:55:43;7.55;;;1.80;;
66487;SDS011;53304;54.550;18.526;2023-02-01T10:58:25;6.82;;;1.70;;
66487;SDS011;53304;54.550;18.526;2023-02-01T11:01:09;4.63;;;1.50;;
66487;SDS011;53304;54.550;18.526;2023-02-01T11:03:41;6.50;;;1.55;;
66487;SDS011;53304;54.550;18.526;2023-02-01T11:06:13;6.72;;;1.55;;
66487;SDS011;53304;54.550;18.526;2023-02-01T11:08:44;4.72;;;1.50;;
66487;SDS011;53304;54.550;18.526;2023-02-01T11:11:11;4.47;;;1.35;;
66487;SDS011;53304;54.550;18.526;2023-02-01T11:13:39;4.03;;;1.30;;
66487;SDS011;53304;54.550;18.526;2023-02-01T11:16:10;6.57;;;1.65;;
66487;SDS011;53304;54.550;18.526;2023-02-01T11:18:37;12.75;;;2.00;;
66487;SDS011;53304;54.550;18.526;2023-02-01T11:21:06;4.43;;;1.55;;
66487;SDS011;53304;54.550;18.526;2023-02-01T11:23:39;8.20;;;1.90;;
66487;SDS011;53304;54.550;18.526;2023-02-01T11:26:20;6.13;;;1.60;;
66487;SDS011;53304;54.550;18.526;2023-02-01T11:28:54;7.90;;;1.67;;
66487;SDS011;53304;54.550;18.526;2023-02-01T11:31:24;5.30;;;1.73;;
66487;SDS011;53304;54.550;18.526;2023-02-01T11:34:05;4.03;;;1.55;;
66487;SDS011;53304;54.550;18.526;2023-02-01T11:36:36;3.90;;;1.50;;
66487;SDS011;53304;54.550;18.526;2023-02-01T11:39:09;5.63;;;1.58;;
66487;SDS011;53304;54.550;18.526;2023-02-01T11:41:42;5.75;;;1.75;;
66487;SDS011;53304;54.550;18.526;2023-02-01T11:44:26;5.47;;;1.75;;
66487;SDS011;53304;54.550;18.526;2023-02-01T11:49:44;5.22;;;1.52;;
66487;SDS011;53304;54.550;18.526;2023-02-01T11:58:18;5.75;;;1.80;;
66487;SDS011;53304;54.550;18.526;2023-02-01T12:05:59;6.25;;;1.63;;
66487;SDS011;53304;54.550;18.526;2023-02-01T12:30:43;4.32;;;1.38;;
66487;SDS011;53304;54.550;18.526;2023-02-01T12:38:52;6.38;;;1.70;;
66487;SDS011;53304;54.550;18.526;2023-02-01T12:46:46;4.68;;;1.60;;
66487;SDS011;53304;54.550;18.526;2023-02-01T12:49:22;5.82;;;1.60;;
66487;SDS011;53304;54.550;18.526;2023-02-01T12:51:55;5.07;;;1.60;;
66487;SDS011;53304;54.550;18.526;2023-02-01T12:54:47;7.15;;;1.60;;
66487;SDS011;53304;54.550;18.526;2023-02-01T12:59:50;4.78;;;1.85;;
66487;SDS011;53304;54.550;18.526;2023-02-01T13:04:57;5.00;;;1.58;;
66487;SDS011;53304;54.550;18.526;2023-02-01T13:07:29;4.97;;;1.65;;
66487;SDS011;53304;54.550;18.526;2023-02-01T13:10:05;6.57;;;2.08;;
66487;SDS011;53304;54.550;18.526;2023-02-01T13:12:36;10.65;;;3.65;;
66487;SDS011;53304;54.550;18.526;2023-02-01T13:15:05;13.25;;;4.32;;
66487;SDS011;53304;54.550;18.526;2023-02-01T13:17:36;13.25;;;4.50;;
66487;SDS011;53304;54.550;18.526;2023-02-01T13:23:07;14.85;;;5.20;;
66487;SDS011;53304;54.550;18.526;2023-02-01T13:25:57;17.35;;;6.38;;
66487;SDS011;53304;54.550;18.526;2023-02-01T13:28:28;13.25;;;5.60;;
66487;SDS011;53304;54.550;18.526;2023-02-01T13:39:48;18.30;;;6.00;;
66487;SDS011;53304;54.550;18.526;2023-02-01T13:42:20;17.88;;;5.97;;
66487;SDS011;53304;54.550;18.526;2023-02-01T13:45:04;14.13;;;5.18;;
66487;SDS011;53304;54.550;18.526;2023-02-01T13:47:42;13.32;;;5.18;;
66487;SDS011;53304;54.550;18.526;2023-02-01T13:50:52;15.02;;;4.95;;
66487;SDS011;53304;54.550;18.526;2023-02-01T13:53:04;14.00;;;4.93;;
66487;SDS011;53304;54.550;18.526;2023-02-01T13:55:40;13.98;;;4.72;;
66487;SDS011;53304;54.550;18.526;2023-02-01T13:58:20;12.32;;;4.65;;
66487;SDS011;53304;54.550;18.526;2023-02-01T14:00:47;12.38;;;4.25;;
66487;SDS011;53304;54.550;18.526;2023-02-01T14:08:21;10.93;;;3.83;;
66487;SDS011;53304;54.550;18.526;2023-02-01T14:11:06;10.93;;;4.13;;
66487;SDS011;53304;54.550;18.526;2023-02-01T14:23:38;10.40;;;3.63;;
66487;SDS011;53304;54.550;18.526;2023-02-01T14:26:08;10.93;;;3.67;;
66487;SDS011;53304;54.550;18.526;2023-02-01T14:28:39;9.82;;;3.40;;
66487;SDS011;53304;54.550;18.526;2023-02-01T14:34:15;11.50;;;4.05;;
66487;SDS011;53304;54.550;18.526;2023-02-01T14:36:50;9.55;;;3.25;;
66487;SDS011;53304;54.550;18.526;2023-02-01T14:39:21;9.68;;;3.20;;
66487;SDS011;53304;54.550;18.526;2023-02-01T14:41:53;8.73;;;3.08;;
66487;SDS011;53304;54.550;18.526;2023-02-01T14:44:26;8.50;;;3.20;;
66487;SDS011;53304;54.550;18.526;2023-02-01T14:47:08;11.85;;;3.60;;
66487;SDS011;53304;54.550;18.526;2023-02-01T14:53:03;10.27;;;3.20;;
66487;SDS011;53304;54.550;18.526;2023-02-01T15:00:58;7.90;;;2.88;;
66487;SDS011;53304;54.550;18.526;2023-02-01T15:06:13;8.45;;;2.97;;
66487;SDS011;53304;54.550;18.526;2023-02-01T15:08:48;9.85;;;3.20;;
66487;SDS011;53304;54.550;18.526;2023-02-01T15:11:15;7.28;;;2.88;;
66487;SDS011;53304;54.550;18.526;2023-02-01T15:13:47;8.88;;;3.10;;
66487;SDS011;53304;54.550;18.526;2023-02-01T15:16:21;7.50;;;2.83;;
66487;SDS011;53304;54.550;18.526;2023-02-01T15:21:31;5.68;;;2.58;;
66487;SDS011;53304;54.550;18.526;2023-02-01T15:24:14;8.48;;;3.45;;
66487;SDS011;53304;54.550;18.526;2023-02-01T15:26:48;7.03;;;2.70;;
66487;SDS011;53304;54.550;18.526;2023-02-01T15:29:16;7.13;;;2.95;;
66487;SDS011;53304;54.550;18.526;2023-02-01T15:31:43;6.22;;;2.90;;
66487;SDS011;53304;54.550;18.526;2023-02-01T15:34:10;6.25;;;2.78;;
66487;SDS011;53304;54.550;18.526;2023-02-01T15:36:39;8.07;;;2.67;;
66487;SDS011;53304;54.550;18.526;2023-02-01T15:39:25;9.70;;;3.03;;
66487;SDS011;53304;54.550;18.526;2023-02-01T15:41:58;8.20;;;2.80;;
66487;SDS011;53304;54.550;18.526;2023-02-01T15:46:56;8.05;;;2.90;;
66487;SDS011;53304;54.550;18.526;2023-02-01T15:51:50;8.02;;;2.80;;
66487;SDS011;53304;54.550;18.526;2023-02-01T15:54:17;8.85;;;3.10;;
66487;SDS011;53304;54.550;18.526;2023-02-01T15:56:48;7.43;;;3.05;;
66487;SDS011;53304;54.550;18.526;2023-02-01T15:59:22;9.10;;;3.10;;
66487;SDS011;53304;54.550;18.526;2023-02-01T16:02:00;8.37;;;2.93;;
66487;SDS011;53304;54.550;18.526;2023-02-01T16:04:28;8.73;;;3.20;;
66487;SDS011;53304;54.550;18.526;2023-02-01T16:07:02;8.55;;;3.00;;
66487;SDS011;53304;54.550;18.526;2023-02-01T16:09:48;11.10;;;3.38;;
66487;SDS011;53304;54.550;18.526;2023-02-01T16:12:26;9.40;;;2.88;;
66487;SDS011;53304;54.550;18.526;2023-02-01T16:14:55;8.02;;;2.95;;
66487;SDS011;53304;54.550;18.526;2023-02-01T16:17:21;8.13;;;2.95;;
66487;SDS011;53304;54.550;18.526;2023-02-01T16:19:46;10.55;;;3.20;;
66487;SDS011;53304;54.550;18.526;2023-02-01T16:22:14;13.52;;;3.00;;
66487;SDS011;53304;54.550;18.526;2023-02-01T16:24:39;6.75;;;2.88;;
66487;SDS011;53304;54.550;18.526;2023-02-01T16:27:05;9.18;;;2.80;;
66487;SDS011;53304;54.550;18.526;2023-02-01T16:29:32;7.28;;;2.95;;
66487;SDS011;53304;54.550;18.526;2023-02-01T16:32:00;9.25;;;3.40;;
66487;SDS011;53304;54.550;18.526;2023-02-01T16:34:25;13.35;;;3.20;;
66487;SDS011;53304;54.550;18.526;2023-02-01T16:36:51;21.90;;;4.45;;
66487;SDS011;53304;54.550;18.526;2023-02-01T16:39:17;10.88;;;3.92;;
66487;SDS011;53304;54.550;18.526;2023-02-01T16:41:46;17.60;;;3.72;;
66487;SDS011;53304;54.550;18.526;2023-02-01T16:44:14;14.95;;;3.92;;
66487;SDS011;53304;54.550;18.526;2023-02-01T16:46:41;21.48;;;4.38;;
66487;SDS011;53304;54.550;18.526;2023-02-01T16:49:20;19.55;;;4.20;;
66487;SDS011;53304;54.550;18.526;2023-02-01T16:51:50;17.33;;;3.72;;
66487;SDS011;53304;54.550;18.526;2023-02-01T16:54:20;16.50;;;4.20;;
66487;SDS011;53304;54.550;18.526;2023-02-01T16:56:46;20.05;;;4.32;;
66487;SDS011;53304;54.550;18.526;2023-02-01T16:59:11;13.60;;;4.28;;
66487;SDS011;53304;54.550;18.526;2023-02-01T17:01:40;18.80;;;4.03;;
66487;SDS011;53304;54.550;18.526;2023-02-01T17:04:08;13.95;;;4.18;;
66487;SDS011;53304;54.550;18.526;2023-02-01T17:06:37;14.80;;;4.00;;
66487;SDS011;53304;54.550;18.526;2023-02-01T17:09:05;17.38;;;4.40;;
66487;SDS011;53304;54.550;18.526;2023-02-01T17:11:33;12.30;;;3.65;;
66487;SDS011;53304;54.550;18.526;2023-02-01T17:14:01;14.05;;;3.95;;
66487;SDS011;53304;54.550;18.526;2023-02-01T17:16:35;10.38;;;3.47;;
66487;SDS011;53304;54.550;18.526;2023-02-01T17:19:05;14.70;;;3.95;;
66487;SDS011;53304;54.550;18.526;2023-02-01T17:21:36;11.07;;;3.42;;
66487;SDS011;53304;54.550;18.526;2023-02-01T17:24:09;13.13;;;3.75;;
66487;SDS011;53304;54.550;18.526;2023-02-01T17:26:39;9.25;;;3.30;;
66487;SDS011;53304;54.550;18.526;2023-02-01T17:29:05;9.43;;;3.35;;